Portada
METAR-TAF:

METAR-TAF

Aeropuertos :

New Richmond Regional Airport

New Richmond, Wisconsin, Estados Unidos

latitud: 45-08-54N, longitud: 092-32-17W, altitud: 304 m

Observación

El informe se hizo hace 17 minutos, a las 06:55 UTC
Viento calma
Temperatura 7°C
Humedad 87%
Presión 1026 hPa
Visibilidad: 16.1 km
Cielo despejado

METAR: KRNH 310655Z AUTO 00000KT 10SM CLR 07/05 A3030 RMK AO2 T00730051

Hora: 02:12 (07:12 UTC)

Pronóstico

El informe se hizo hace 1 hora y 52 minutos, a las 05:20 UTC
Pronóstico válido del 31 a las 06 UTC al 01 a las 06 UTC
Viento 2 kt del norte-noreste
Visibilidad: 10 km
Cielo despejado
A partir de las 31 a las 1500 UTC
Viento 5 kt del sur
Visibilidad: 10 km
Nubes dispersas a una altura de 25000 ft
A partir de las 01 a las 0200 UTC
Viento 5 kt del sur-sureste
Visibilidad: 10 km
Cielo nuboso a una altura de 10000 ft

TAF: KRNH 310520Z 3106/0106 03002KT P6SM SKC FM311500 19005KT P6SM SCT250 FM010200 16005KT P6SM BKN100

Observaciones y pronósticos meteorológicos de más de 4000 aeropuertos (mensajes METAR y TAF).

Los puntos amarillos y rojos representan las estaciones disponibles.

Ponga el ratón en el punto deseado para ver el nombre de la estación.

Haga clic para ver las observaciones y los pronósticos meteorológicos.

Para cambiar el mapa : haga clic en los botones verdes con una cruz de color negro para hacer un zoom, en el botón verde con un guión para alejar o en las flechas verdes para mapas adyacentes.


METAR-TAF: